Detall de PIREP

Printer-friendly versionPDF version

[2012/03/19 10:31:00]
Flight IATA:CT1005
Pilot Number:011
Company ICAO:CAT
Aircraft Type:F28/A
PAX:85
Departing Airport: EDDN
Destination Airport: EHEH
Alternate Airport:EHRD
Online: VATSIM
Route:SULUS L604 DEMAB/NO424F280 UL604 BIGGE T281 AMSAN UL980 RKN DCT ROTEK
Flight Level:F240
No Slew and time accel
No pause
Crash detect
Detect pilot in Cockpit between each 30 and 45 minutes
10:31 Zero fuel Weight: 60156 Lbs, Fuel Weight: 10738 Lbs
10:31 VATSIM:EDDN 190950Z VRB03KT 9999 SCT023 07/02 Q1027 NOSIG
10:31 VATSIM:EHEH 190959Z AUTO 32006KT 9999 FEW024 08/02 Q1031 BLU BLU TEMPO WHT 34004KT 9999 FEW023 TEMPO SCT023
10:36 Parking Brakes off
10:52 Take-off
10:52 Take off Weight: 70219 Lbs
10:52 Wind: 345º @ 004 Knots Heading: 279º
10:52 POS N49º 29´ 56´´ E011º 04´ 30´´
10:52 Flaps:2 at 153 Knots
10:52 Gear Up: 159 Knots
10:53 Flaps:1 at 195 Knots
10:53 Flaps:0 at 209Knots
11:04 TOC
11:04 Fuel Weight: 8401 Lb
11:07 Wind:335º@024 Knots Heading: 313º Ground Speed: 384 Knots Altitude 24438 ft
11:22 Wind:281º@027 Knots Heading: 317º Ground Speed: 382 Knots Altitude 24488 ft
11:29 TOD
11:29 Fuel Weight: 6345 Lb
11:37 Wind:272º@009 Knots Heading: 220º Ground Speed: 284 Knots Altitude 10587 ft
11:45 Flaps:1 at 229 Knots
11:46 Flaps:2 at 226 Knots
11:47 Flaps:3 at 194 Knots
11:49 Flaps:4 at 168 Knots
11:49 Gear Down: 166 Knots
11:51 Flaps:5 at 137 Knots
11:52 Wind:321º@005 Knots Heading: 039º Ground Speed: 132 Knots Altitude 1013 ft
11:55 TouchDown:Rate -119 ft/min Speed: 107 Knots
11:55 VATSIM:EHEH 191125Z AUTO 32005KT 9999 FEW039 10/00 Q1031 BLU BLU NOSIG
11:55 Land
11:55 Wind:320º@005 Knots
11:55 Heading: 035º
11:55 Flight Duration: 01:03
11:55 Landing Weight: 65138 Lbs
11:55 POS N51º 27´ 08´´ E005º 22´ 37´´
11:58 Parking brakes on
11:58 Block to Block Duration: 01:22
11:58 Final Fuel: 4878 Lbls
11:58 Spent Fuel: 5859 Lbls
11:58 Flight Length: 90 NM
11:58 TOD Land Length: 55 NM

Exportar CSV

Powered by Drupal - Modified by Danger4k